sensor_id;sensor_type;location;lat;lon;timestamp;temperature;humidity
12130;DHT22;6128;59.340;18.040;2023-05-09T00:01:29;7.90;72.30
12130;DHT22;6128;59.340;18.040;2023-05-09T00:03:57;7.80;72.40
12130;DHT22;6128;59.340;18.040;2023-05-09T00:06:24;7.80;72.60
12130;DHT22;6128;59.340;18.040;2023-05-09T00:08:52;7.80;72.50
12130;DHT22;6128;59.340;18.040;2023-05-09T00:11:21;7.80;72.50
12130;DHT22;6128;59.340;18.040;2023-05-09T00:13:48;7.80;72.60
12130;DHT22;6128;59.340;18.040;2023-05-09T00:16:15;7.80;72.90
12130;DHT22;6128;59.340;18.040;2023-05-09T00:18:43;7.80;73.00
12130;DHT22;6128;59.340;18.040;2023-05-09T00:21:10;7.80;73.00
12130;DHT22;6128;59.340;18.040;2023-05-09T00:23:37;7.80;73.40
12130;DHT22;6128;59.340;18.040;2023-05-09T00:26:04;7.80;73.70
12130;DHT22;6128;59.340;18.040;2023-05-09T00:28:33;7.80;73.90
12130;DHT22;6128;59.340;18.040;2023-05-09T00:31:00;7.80;73.70
12130;DHT22;6128;59.340;18.040;2023-05-09T00:33:27;7.80;73.90
12130;DHT22;6128;59.340;18.040;2023-05-09T00:35:54;7.80;74.20
12130;DHT22;6128;59.340;18.040;2023-05-09T00:38:22;7.70;74.20
12130;DHT22;6128;59.340;18.040;2023-05-09T00:40:49;7.70;74.20
12130;DHT22;6128;59.340;18.040;2023-05-09T00:43:16;7.70;74.40
12130;DHT22;6128;59.340;18.040;2023-05-09T00:45:45;7.70;74.60
12130;DHT22;6128;59.340;18.040;2023-05-09T00:48:13;7.70;74.50
12130;DHT22;6128;59.340;18.040;2023-05-09T00:50:41;7.70;74.60
12130;DHT22;6128;59.340;18.040;2023-05-09T00:53:08;7.70;74.80
12130;DHT22;6128;59.340;18.040;2023-05-09T00:55:35;7.70;74.70
12130;DHT22;6128;59.340;18.040;2023-05-09T00:58:03;7.60;74.90
12130;DHT22;6128;59.340;18.040;2023-05-09T01:00:30;7.50;75.20
12130;DHT22;6128;59.340;18.040;2023-05-09T01:02:58;7.50;75.30
12130;DHT22;6128;59.340;18.040;2023-05-09T01:05:29;7.50;75.30
12130;DHT22;6128;59.340;18.040;2023-05-09T01:08:04;7.50;75.50
12130;DHT22;6128;59.340;18.040;2023-05-09T01:10:37;7.50;75.80
12130;DHT22;6128;59.340;18.040;2023-05-09T01:13:14;7.50;75.50
12130;DHT22;6128;59.340;18.040;2023-05-09T01:15:47;7.50;75.30
12130;DHT22;6128;59.340;18.040;2023-05-09T01:18:22;7.50;75.50
12130;DHT22;6128;59.340;18.040;2023-05-09T01:20:55;7.40;75.50
12130;DHT22;6128;59.340;18.040;2023-05-09T01:23:45;7.40;75.50
12130;DHT22;6128;59.340;18.040;2023-05-09T01:26:22;7.40;75.60
12130;DHT22;6128;59.340;18.040;2023-05-09T01:31:57;7.40;76.10
12130;DHT22;6128;59.340;18.040;2023-05-09T01:34:26;7.40;76.10
12130;DHT22;6128;59.340;18.040;2023-05-09T01:36:57;7.30;76.40
12130;DHT22;6128;59.340;18.040;2023-05-09T01:39:26;7.30;76.60
12130;DHT22;6128;59.340;18.040;2023-05-09T01:41:56;7.30;76.80
12130;DHT22;6128;59.340;18.040;2023-05-09T01:44:24;7.30;76.80
12130;DHT22;6128;59.340;18.040;2023-05-09T01:46:54;7.20;76.90
12130;DHT22;6128;59.340;18.040;2023-05-09T01:49:23;7.20;77.30
12130;DHT22;6128;59.340;18.040;2023-05-09T01:51:51;7.20;77.30
12130;DHT22;6128;59.340;18.040;2023-05-09T01:54:21;7.20;77.50
12130;DHT22;6128;59.340;18.040;2023-05-09T01:56:51;7.10;77.80
12130;DHT22;6128;59.340;18.040;2023-05-09T01:59:19;7.10;78.50
12130;DHT22;6128;59.340;18.040;2023-05-09T02:01:47;7.10;78.50
12130;DHT22;6128;59.340;18.040;2023-05-09T02:04:15;7.10;79.00
12130;DHT22;6128;59.340;18.040;2023-05-09T02:06:46;7.10;79.60
12130;DHT22;6128;59.340;18.040;2023-05-09T02:09:16;7.00;80.10
12130;DHT22;6128;59.340;18.040;2023-05-09T02:11:43;7.00;80.40
12130;DHT22;6128;59.340;18.040;2023-05-09T02:14:11;7.00;81.10
12130;DHT22;6128;59.340;18.040;2023-05-09T02:16:38;7.00;81.40
12130;DHT22;6128;59.340;18.040;2023-05-09T02:19:06;6.90;81.90
12130;DHT22;6128;59.340;18.040;2023-05-09T02:21:33;6.90;82.10
12130;DHT22;6128;59.340;18.040;2023-05-09T02:24:02;6.90;82.50
12130;DHT22;6128;59.340;18.040;2023-05-09T02:26:29;6.90;82.50
12130;DHT22;6128;59.340;18.040;2023-05-09T02:28:57;6.90;83.20
12130;DHT22;6128;59.340;18.040;2023-05-09T02:31:25;6.90;83.50
12130;DHT22;6128;59.340;18.040;2023-05-09T02:33:54;6.90;84.00
12130;DHT22;6128;59.340;18.040;2023-05-09T02:36:22;6.80;84.30
12130;DHT22;6128;59.340;18.040;2023-05-09T02:38:50;6.80;84.70
12130;DHT22;6128;59.340;18.040;2023-05-09T02:41:18;6.80;85.00
12130;DHT22;6128;59.340;18.040;2023-05-09T02:43:46;6.80;85.00
12130;DHT22;6128;59.340;18.040;2023-05-09T02:46:13;6.80;85.00
12130;DHT22;6128;59.340;18.040;2023-05-09T02:48:40;6.80;86.20
12130;DHT22;6128;59.340;18.040;2023-05-09T02:51:07;6.80;86.60
12130;DHT22;6128;59.340;18.040;2023-05-09T02:53:34;6.80;87.10
12130;DHT22;6128;59.340;18.040;2023-05-09T02:56:02;6.80;87.60
12130;DHT22;6128;59.340;18.040;2023-05-09T02:58:30;6.80;87.80
12130;DHT22;6128;59.340;18.040;2023-05-09T03:00:57;6.90;87.70
12130;DHT22;6128;59.340;18.040;2023-05-09T03:03:24;6.80;87.90
12130;DHT22;6128;59.340;18.040;2023-05-09T03:05:51;6.80;88.20
12130;DHT22;6128;59.340;18.040;2023-05-09T03:08:18;6.80;88.90
12130;DHT22;6128;59.340;18.040;2023-05-09T03:10:45;6.80;89.30
12130;DHT22;6128;59.340;18.040;2023-05-09T03:13:12;6.90;89.80
12130;DHT22;6128;59.340;18.040;2023-05-09T03:15:41;6.90;90.30
12130;DHT22;6128;59.340;18.040;2023-05-09T03:18:08;6.90;90.60
12130;DHT22;6128;59.340;18.040;2023-05-09T03:20:36;6.90;91.00
12130;DHT22;6128;59.340;18.040;2023-05-09T03:23:03;6.90;91.30
12130;DHT22;6128;59.340;18.040;2023-05-09T03:25:30;6.90;91.40
12130;DHT22;6128;59.340;18.040;2023-05-09T03:27:57;6.90;91.50
12130;DHT22;6128;59.340;18.040;2023-05-09T03:30:24;7.00;91.80
12130;DHT22;6128;59.340;18.040;2023-05-09T03:32:53;7.00;92.00
12130;DHT22;6128;59.340;18.040;2023-05-09T03:35:20;7.00;92.30
12130;DHT22;6128;59.340;18.040;2023-05-09T03:37:48;7.00;92.40
12130;DHT22;6128;59.340;18.040;2023-05-09T03:40:15;7.00;92.70
12130;DHT22;6128;59.340;18.040;2023-05-09T03:42:42;7.10;92.70
12130;DHT22;6128;59.340;18.040;2023-05-09T03:45:10;7.10;92.90
12130;DHT22;6128;59.340;18.040;2023-05-09T03:47:37;7.10;92.90
12130;DHT22;6128;59.340;18.040;2023-05-09T03:50:07;7.20;93.20
12130;DHT22;6128;59.340;18.040;2023-05-09T03:52:34;7.20;93.40
12130;DHT22;6128;59.340;18.040;2023-05-09T03:55:02;7.20;93.50
12130;DHT22;6128;59.340;18.040;2023-05-09T03:57:29;7.30;93.70
12130;DHT22;6128;59.340;18.040;2023-05-09T03:59:56;7.30;93.60
12130;DHT22;6128;59.340;18.040;2023-05-09T04:02:23;7.40;93.60
12130;DHT22;6128;59.340;18.040;2023-05-09T04:04:51;7.40;93.50
12130;DHT22;6128;59.340;18.040;2023-05-09T04:07:19;7.50;93.40
12130;DHT22;6128;59.340;18.040;2023-05-09T04:09:47;7.50;93.40
12130;DHT22;6128;59.340;18.040;2023-05-09T04:12:15;7.60;93.30
12130;DHT22;6128;59.340;18.040;2023-05-09T04:14:42;7.70;93.50
12130;DHT22;6128;59.340;18.040;2023-05-09T04:17:09;7.80;93.30
12130;DHT22;6128;59.340;18.040;2023-05-09T04:19:36;7.90;93.30
12130;DHT22;6128;59.340;18.040;2023-05-09T04:22:03;7.90;93.30
12130;DHT22;6128;59.340;18.040;2023-05-09T04:24:32;8.00;93.10
12130;DHT22;6128;59.340;18.040;2023-05-09T04:26:59;8.10;93.10
12130;DHT22;6128;59.340;18.040;2023-05-09T04:29:26;8.20;92.90
12130;DHT22;6128;59.340;18.040;2023-05-09T04:31:54;8.30;92.90
12130;DHT22;6128;59.340;18.040;2023-05-09T04:34:21;8.40;92.60
12130;DHT22;6128;59.340;18.040;2023-05-09T04:36:48;8.50;92.50
12130;DHT22;6128;59.340;18.040;2023-05-09T04:39:16;8.60;92.40
12130;DHT22;6128;59.340;18.040;2023-05-09T04:41:45;8.70;92.30
12130;DHT22;6128;59.340;18.040;2023-05-09T04:44:14;8.70;92.20
12130;DHT22;6128;59.340;18.040;2023-05-09T04:46:41;8.80;92.10
12130;DHT22;6128;59.340;18.040;2023-05-09T04:49:08;8.90;92.20
12130;DHT22;6128;59.340;18.040;2023-05-09T04:51:35;9.00;92.10
12130;DHT22;6128;59.340;18.040;2023-05-09T04:54:03;9.10;92.00
12130;DHT22;6128;59.340;18.040;2023-05-09T04:56:30;9.20;92.10
12130;DHT22;6128;59.340;18.040;2023-05-09T04:58:58;9.30;92.10
12130;DHT22;6128;59.340;18.040;2023-05-09T05:01:25;9.30;92.10
12130;DHT22;6128;59.340;18.040;2023-05-09T05:03:52;9.50;92.10
12130;DHT22;6128;59.340;18.040;2023-05-09T05:06:20;9.60;92.10
12130;DHT22;6128;59.340;18.040;2023-05-09T05:08:47;9.70;92.00
12130;DHT22;6128;59.340;18.040;2023-05-09T05:11:14;9.80;91.90
12130;DHT22;6128;59.340;18.040;2023-05-09T05:13:42;9.90;91.90
12130;DHT22;6128;59.340;18.040;2023-05-09T05:16:11;10.00;91.70
12130;DHT22;6128;59.340;18.040;2023-05-09T05:18:38;10.10;91.70
12130;DHT22;6128;59.340;18.040;2023-05-09T05:21:05;10.20;91.60
12130;DHT22;6128;59.340;18.040;2023-05-09T05:23:33;10.30;91.50
12130;DHT22;6128;59.340;18.040;2023-05-09T05:26:00;10.50;91.40
12130;DHT22;6128;59.340;18.040;2023-05-09T05:28:27;10.60;91.30
12130;DHT22;6128;59.340;18.040;2023-05-09T05:30:54;10.60;91.20
12130;DHT22;6128;59.340;18.040;2023-05-09T05:33:23;10.70;91.10
12130;DHT22;6128;59.340;18.040;2023-05-09T05:35:50;10.80;91.10
12130;DHT22;6128;59.340;18.040;2023-05-09T05:38:17;10.90;91.00
12130;DHT22;6128;59.340;18.040;2023-05-09T05:40:44;11.00;91.00
12130;DHT22;6128;59.340;18.040;2023-05-09T05:43:12;11.00;90.90
12130;DHT22;6128;59.340;18.040;2023-05-09T05:45:39;11.10;90.90
12130;DHT22;6128;59.340;18.040;2023-05-09T05:48:06;11.20;90.90
12130;DHT22;6128;59.340;18.040;2023-05-09T05:50:35;11.20;90.90
12130;DHT22;6128;59.340;18.040;2023-05-09T05:53:02;11.30;90.90
12130;DHT22;6128;59.340;18.040;2023-05-09T05:55:29;11.40;90.90
12130;DHT22;6128;59.340;18.040;2023-05-09T05:57:56;11.50;90.80
12130;DHT22;6128;59.340;18.040;2023-05-09T06:00:24;11.70;90.80
12130;DHT22;6128;59.340;18.040;2023-05-09T06:02:51;11.90;90.80
12130;DHT22;6128;59.340;18.040;2023-05-09T06:05:18;12.50;90.90
12130;DHT22;6128;59.340;18.040;2023-05-09T06:07:47;13.60;91.10
12130;DHT22;6128;59.340;18.040;2023-05-09T06:10:14;14.40;91.40
12130;DHT22;6128;59.340;18.040;2023-05-09T06:12:41;14.80;91.70
12130;DHT22;6128;59.340;18.040;2023-05-09T06:15:09;15.30;91.90
12130;DHT22;6128;59.340;18.040;2023-05-09T06:17:37;15.80;92.00
12130;DHT22;6128;59.340;18.040;2023-05-09T06:20:05;16.80;92.20
12130;DHT22;6128;59.340;18.040;2023-05-09T06:22:33;18.00;92.40
12130;DHT22;6128;59.340;18.040;2023-05-09T06:25:02;18.90;92.40
12130;DHT22;6128;59.340;18.040;2023-05-09T06:27:29;19.40;92.20
12130;DHT22;6128;59.340;18.040;2023-05-09T06:29:56;20.20;92.00
12130;DHT22;6128;59.340;18.040;2023-05-09T06:32:23;20.60;91.70
12130;DHT22;6128;59.340;18.040;2023-05-09T06:34:50;20.90;90.70
12130;DHT22;6128;59.340;18.040;2023-05-09T06:37:17;21.20;89.20
12130;DHT22;6128;59.340;18.040;2023-05-09T06:39:44;21.60;88.50
12130;DHT22;6128;59.340;18.040;2023-05-09T06:42:13;22.00;87.80
12130;DHT22;6128;59.340;18.040;2023-05-09T06:44:40;22.30;86.50
12130;DHT22;6128;59.340;18.040;2023-05-09T06:47:08;22.30;85.10
12130;DHT22;6128;59.340;18.040;2023-05-09T06:49:35;22.80;84.80
12130;DHT22;6128;59.340;18.040;2023-05-09T06:52:03;23.20;84.50
12130;DHT22;6128;59.340;18.040;2023-05-09T06:54:30;23.50;83.90
12130;DHT22;6128;59.340;18.040;2023-05-09T06:56:57;23.60;83.70
12130;DHT22;6128;59.340;18.040;2023-05-09T06:59:26;23.60;82.10
12130;DHT22;6128;59.340;18.040;2023-05-09T07:01:53;23.70;81.10
12130;DHT22;6128;59.340;18.040;2023-05-09T07:04:20;23.90;80.80
12130;DHT22;6128;59.340;18.040;2023-05-09T07:06:48;23.90;79.60
12130;DHT22;6128;59.340;18.040;2023-05-09T07:09:15;23.80;78.70
12130;DHT22;6128;59.340;18.040;2023-05-09T07:11:45;24.10;78.20
12130;DHT22;6128;59.340;18.040;2023-05-09T07:14:12;24.10;77.00
12130;DHT22;6128;59.340;18.040;2023-05-09T07:16:40;24.20;75.90
12130;DHT22;6128;59.340;18.040;2023-05-09T07:19:08;24.10;75.50
12130;DHT22;6128;59.340;18.040;2023-05-09T07:21:35;24.50;75.00
12130;DHT22;6128;59.340;18.040;2023-05-09T07:24:02;24.90;74.30
12130;DHT22;6128;59.340;18.040;2023-05-09T07:26:29;25.00;73.30
12130;DHT22;6128;59.340;18.040;2023-05-09T07:28:56;24.70;72.80
12130;DHT22;6128;59.340;18.040;2023-05-09T07:31:23;24.70;71.80
12130;DHT22;6128;59.340;18.040;2023-05-09T07:33:52;24.70;71.30
12130;DHT22;6128;59.340;18.040;2023-05-09T07:36:19;24.70;70.30
12130;DHT22;6128;59.340;18.040;2023-05-09T07:38:46;24.70;69.80
12130;DHT22;6128;59.340;18.040;2023-05-09T07:41:15;24.80;69.10
12130;DHT22;6128;59.340;18.040;2023-05-09T07:43:42;24.70;68.20
12130;DHT22;6128;59.340;18.040;2023-05-09T07:46:09;24.60;67.70
12130;DHT22;6128;59.340;18.040;2023-05-09T07:48:36;24.30;67.20
12130;DHT22;6128;59.340;18.040;2023-05-09T07:51:05;24.20;66.70
12130;DHT22;6128;59.340;18.040;2023-05-09T07:53:32;23.80;65.70
12130;DHT22;6128;59.340;18.040;2023-05-09T07:55:59;23.00;65.30
12130;DHT22;6128;59.340;18.040;2023-05-09T07:58:26;22.40;64.60
12130;DHT22;6128;59.340;18.040;2023-05-09T08:00:55;22.00;64.20
12130;DHT22;6128;59.340;18.040;2023-05-09T08:03:22;21.90;63.90
12130;DHT22;6128;59.340;18.040;2023-05-09T08:05:52;21.80;63.40
12130;DHT22;6128;59.340;18.040;2023-05-09T08:08:21;21.70;63.30
12130;DHT22;6128;59.340;18.040;2023-05-09T08:10:49;21.60;63.20
12130;DHT22;6128;59.340;18.040;2023-05-09T08:13:16;21.50;63.10
12130;DHT22;6128;59.340;18.040;2023-05-09T08:15:43;21.50;63.10
12130;DHT22;6128;59.340;18.040;2023-05-09T08:18:10;21.20;63.10
12130;DHT22;6128;59.340;18.040;2023-05-09T08:20:37;21.20;63.10
12130;DHT22;6128;59.340;18.040;2023-05-09T08:23:04;21.30;63.20
12130;DHT22;6128;59.340;18.040;2023-05-09T08:25:33;21.40;63.20
12130;DHT22;6128;59.340;18.040;2023-05-09T08:28:00;21.20;63.20
12130;DHT22;6128;59.340;18.040;2023-05-09T08:30:27;21.30;63.20
12130;DHT22;6128;59.340;18.040;2023-05-09T08:32:54;21.30;63.20
12130;DHT22;6128;59.340;18.040;2023-05-09T08:35:21;21.00;63.00
12130;DHT22;6128;59.340;18.040;2023-05-09T08:37:49;20.80;62.80
12130;DHT22;6128;59.340;18.040;2023-05-09T08:40:17;20.80;62.60
12130;DHT22;6128;59.340;18.040;2023-05-09T08:42:46;20.80;62.40
12130;DHT22;6128;59.340;18.040;2023-05-09T08:45:16;20.90;62.10
12130;DHT22;6128;59.340;18.040;2023-05-09T08:47:46;20.80;62.00
12130;DHT22;6128;59.340;18.040;2023-05-09T08:50:13;20.90;62.20
12130;DHT22;6128;59.340;18.040;2023-05-09T08:52:42;21.00;62.40
12130;DHT22;6128;59.340;18.040;2023-05-09T08:55:09;21.00;62.50
12130;DHT22;6128;59.340;18.040;2023-05-09T08:57:37;21.10;62.60
12130;DHT22;6128;59.340;18.040;2023-05-09T09:00:07;21.40;63.10
12130;DHT22;6128;59.340;18.040;2023-05-09T09:02:36;21.80;63.20
12130;DHT22;6128;59.340;18.040;2023-05-09T09:05:06;22.10;63.20
12130;DHT22;6128;59.340;18.040;2023-05-09T09:07:34;22.50;63.30
12130;DHT22;6128;59.340;18.040;2023-05-09T09:10:03;23.00;63.30
12130;DHT22;6128;59.340;18.040;2023-05-09T09:12:30;23.60;63.50
12130;DHT22;6128;59.340;18.040;2023-05-09T09:15:03;23.90;63.50
12130;DHT22;6128;59.340;18.040;2023-05-09T09:17:32;24.80;63.40
12130;DHT22;6128;59.340;18.040;2023-05-09T09:20:03;25.20;63.10
12130;DHT22;6128;59.340;18.040;2023-05-09T09:22:32;24.40;62.60
12130;DHT22;6128;59.340;18.040;2023-05-09T09:25:00;23.40;61.00
12130;DHT22;6128;59.340;18.040;2023-05-09T09:27:28;22.40;59.60
12130;DHT22;6128;59.340;18.040;2023-05-09T09:30:05;21.60;58.80
12130;DHT22;6128;59.340;18.040;2023-05-09T09:32:34;20.80;57.90
12130;DHT22;6128;59.340;18.040;2023-05-09T09:35:05;20.10;57.40
12130;DHT22;6128;59.340;18.040;2023-05-09T09:37:34;19.40;57.20
12130;DHT22;6128;59.340;18.040;2023-05-09T09:40:01;19.10;56.80
12130;DHT22;6128;59.340;18.040;2023-05-09T09:42:41;18.90;56.70
12130;DHT22;6128;59.340;18.040;2023-05-09T09:45:14;18.70;56.50
12130;DHT22;6128;59.340;18.040;2023-05-09T09:47:46;18.50;56.60
12130;DHT22;6128;59.340;18.040;2023-05-09T09:50:15;18.30;56.60
12130;DHT22;6128;59.340;18.040;2023-05-09T09:52:43;18.10;56.60
12130;DHT22;6128;59.340;18.040;2023-05-09T09:55:14;18.00;56.70
12130;DHT22;6128;59.340;18.040;2023-05-09T09:57:41;17.90;56.80
12130;DHT22;6128;59.340;18.040;2023-05-09T10:00:13;17.80;56.90
12130;DHT22;6128;59.340;18.040;2023-05-09T10:02:49;17.70;57.00
12130;DHT22;6128;59.340;18.040;2023-05-09T10:05:21;17.70;57.10
12130;DHT22;6128;59.340;18.040;2023-05-09T10:07:54;17.70;57.30
12130;DHT22;6128;59.340;18.040;2023-05-09T10:10:22;17.80;57.30
12130;DHT22;6128;59.340;18.040;2023-05-09T10:12:54;17.80;57.40
12130;DHT22;6128;59.340;18.040;2023-05-09T10:15:22;17.80;57.30
12130;DHT22;6128;59.340;18.040;2023-05-09T10:17:53;17.80;57.20
12130;DHT22;6128;59.340;18.040;2023-05-09T10:20:22;17.80;57.10
12130;DHT22;6128;59.340;18.040;2023-05-09T10:22:52;17.90;57.10
12130;DHT22;6128;59.340;18.040;2023-05-09T10:25:21;17.90;57.00
12130;DHT22;6128;59.340;18.040;2023-05-09T10:27:48;17.90;57.00
12130;DHT22;6128;59.340;18.040;2023-05-09T10:30:18;17.90;57.00
12130;DHT22;6128;59.340;18.040;2023-05-09T10:32:53;17.90;57.10
12130;DHT22;6128;59.340;18.040;2023-05-09T10:35:25;18.00;57.20
12130;DHT22;6128;59.340;18.040;2023-05-09T10:37:55;18.10;57.40
12130;DHT22;6128;59.340;18.040;2023-05-09T10:40:23;18.10;57.50
12130;DHT22;6128;59.340;18.040;2023-05-09T10:42:50;18.10;57.60
12130;DHT22;6128;59.340;18.040;2023-05-09T10:45:17;18.10;57.60
12130;DHT22;6128;59.340;18.040;2023-05-09T10:47:47;18.10;57.60
12130;DHT22;6128;59.340;18.040;2023-05-09T10:50:17;17.90;57.60
12130;DHT22;6128;59.340;18.040;2023-05-09T10:53:05;17.80;57.50
12130;DHT22;6128;59.340;18.040;2023-05-09T10:55:37;17.80;57.40
12130;DHT22;6128;59.340;18.040;2023-05-09T10:58:22;17.90;57.20
12130;DHT22;6128;59.340;18.040;2023-05-09T11:00:51;18.00;57.20
12130;DHT22;6128;59.340;18.040;2023-05-09T11:03:18;18.10;57.20
12130;DHT22;6128;59.340;18.040;2023-05-09T11:05:49;18.10;57.10
12130;DHT22;6128;59.340;18.040;2023-05-09T11:08:20;18.00;57.10
12130;DHT22;6128;59.340;18.040;2023-05-09T11:10:49;18.00;57.20
12130;DHT22;6128;59.340;18.040;2023-05-09T11:13:21;18.00;57.20
12130;DHT22;6128;59.340;18.040;2023-05-09T11:16:08;18.10;57.20
12130;DHT22;6128;59.340;18.040;2023-05-09T11:18:49;18.20;57.30
12130;DHT22;6128;59.340;18.040;2023-05-09T11:21:19;18.20;57.30
12130;DHT22;6128;59.340;18.040;2023-05-09T11:23:48;18.00;57.30
12130;DHT22;6128;59.340;18.040;2023-05-09T11:26:15;17.90;57.30
12130;DHT22;6128;59.340;18.040;2023-05-09T11:28:52;17.90;57.40
12130;DHT22;6128;59.340;18.040;2023-05-09T11:31:22;17.80;57.50
12130;DHT22;6128;59.340;18.040;2023-05-09T11:33:49;17.90;57.50
12130;DHT22;6128;59.340;18.040;2023-05-09T11:36:29;18.00;57.50
12130;DHT22;6128;59.340;18.040;2023-05-09T11:39:03;18.10;57.60
12130;DHT22;6128;59.340;18.040;2023-05-09T11:41:31;18.10;57.60
12130;DHT22;6128;59.340;18.040;2023-05-09T11:44:12;18.00;57.60
12130;DHT22;6128;59.340;18.040;2023-05-09T11:46:39;18.10;57.50
12130;DHT22;6128;59.340;18.040;2023-05-09T11:49:06;18.10;57.50
12130;DHT22;6128;59.340;18.040;2023-05-09T11:51:36;18.00;57.40
12130;DHT22;6128;59.340;18.040;2023-05-09T11:54:04;18.00;57.20
12130;DHT22;6128;59.340;18.040;2023-05-09T11:56:31;18.00;57.20
12130;DHT22;6128;59.340;18.040;2023-05-09T11:59:00;18.10;57.20
12130;DHT22;6128;59.340;18.040;2023-05-09T12:01:28;18.20;57.20
12130;DHT22;6128;59.340;18.040;2023-05-09T12:03:56;18.30;57.30
12130;DHT22;6128;59.340;18.040;2023-05-09T12:06:23;18.40;57.40
12130;DHT22;6128;59.340;18.040;2023-05-09T12:08:54;18.50;57.40
12130;DHT22;6128;59.340;18.040;2023-05-09T12:11:23;18.50;57.30
12130;DHT22;6128;59.340;18.040;2023-05-09T12:13:51;18.50;57.20
12130;DHT22;6128;59.340;18.040;2023-05-09T12:16:19;18.50;57.00
12130;DHT22;6128;59.340;18.040;2023-05-09T12:18:47;18.40;56.90
12130;DHT22;6128;59.340;18.040;2023-05-09T12:21:15;18.40;56.70
12130;DHT22;6128;59.340;18.040;2023-05-09T12:23:42;18.40;56.60
12130;DHT22;6128;59.340;18.040;2023-05-09T12:26:11;18.50;56.70
12130;DHT22;6128;59.340;18.040;2023-05-09T12:28:38;18.50;56.60
12130;DHT22;6128;59.340;18.040;2023-05-09T12:31:06;18.60;56.60
12130;DHT22;6128;59.340;18.040;2023-05-09T12:33:33;18.70;56.60
12130;DHT22;6128;59.340;18.040;2023-05-09T12:36:05;18.60;56.60
12130;DHT22;6128;59.340;18.040;2023-05-09T12:38:32;18.40;56.50
12130;DHT22;6128;59.340;18.040;2023-05-09T12:41:00;18.30;56.50
12130;DHT22;6128;59.340;18.040;2023-05-09T12:43:33;18.40;56.50
12130;DHT22;6128;59.340;18.040;2023-05-09T12:46:02;18.30;56.40
12130;DHT22;6128;59.340;18.040;2023-05-09T12:48:34;18.30;56.40
12130;DHT22;6128;59.340;18.040;2023-05-09T12:51:03;18.30;56.40
12130;DHT22;6128;59.340;18.040;2023-05-09T12:53:30;18.10;56.50
12130;DHT22;6128;59.340;18.040;2023-05-09T12:56:01;18.10;56.40
12130;DHT22;6128;59.340;18.040;2023-05-09T12:58:29;18.10;56.40
12130;DHT22;6128;59.340;18.040;2023-05-09T13:01:02;18.10;56.50
12130;DHT22;6128;59.340;18.040;2023-05-09T13:03:30;18.00;56.50
12130;DHT22;6128;59.340;18.040;2023-05-09T13:06:03;18.00;56.60
12130;DHT22;6128;59.340;18.040;2023-05-09T13:08:31;18.00;56.70
12130;DHT22;6128;59.340;18.040;2023-05-09T13:10:58;18.00;56.80
12130;DHT22;6128;59.340;18.040;2023-05-09T13:13:26;18.00;56.80
12130;DHT22;6128;59.340;18.040;2023-05-09T13:15:54;18.10;56.80
12130;DHT22;6128;59.340;18.040;2023-05-09T13:18:23;18.20;56.90
12130;DHT22;6128;59.340;18.040;2023-05-09T13:20:50;18.20;56.90
12130;DHT22;6128;59.340;18.040;2023-05-09T13:23:17;18.30;56.80
12130;DHT22;6128;59.340;18.040;2023-05-09T13:25:44;18.50;56.90
12130;DHT22;6128;59.340;18.040;2023-05-09T13:28:11;18.70;56.90
12130;DHT22;6128;59.340;18.040;2023-05-09T13:30:38;18.70;56.80
12130;DHT22;6128;59.340;18.040;2023-05-09T13:33:07;18.80;56.70
12130;DHT22;6128;59.340;18.040;2023-05-09T13:35:35;18.90;56.70
12130;DHT22;6128;59.340;18.040;2023-05-09T13:38:02;19.00;56.50
12130;DHT22;6128;59.340;18.040;2023-05-09T13:40:29;18.90;56.20
12130;DHT22;6128;59.340;18.040;2023-05-09T13:42:56;18.90;55.90
12130;DHT22;6128;59.340;18.040;2023-05-09T13:45:23;18.60;55.60
12130;DHT22;6128;59.340;18.040;2023-05-09T13:47:51;18.50;55.30
12130;DHT22;6128;59.340;18.040;2023-05-09T13:50:18;18.40;54.80
12130;DHT22;6128;59.340;18.040;2023-05-09T13:52:46;18.20;54.60
12130;DHT22;6128;59.340;18.040;2023-05-09T13:55:14;18.10;54.40
12130;DHT22;6128;59.340;18.040;2023-05-09T13:57:42;18.10;54.20
12130;DHT22;6128;59.340;18.040;2023-05-09T14:00:10;18.00;53.90
12130;DHT22;6128;59.340;18.040;2023-05-09T14:02:37;18.00;53.80
12130;DHT22;6128;59.340;18.040;2023-05-09T14:05:08;18.00;53.80
12130;DHT22;6128;59.340;18.040;2023-05-09T14:07:35;18.00;53.70
12130;DHT22;6128;59.340;18.040;2023-05-09T14:10:05;18.10;53.60
12130;DHT22;6128;59.340;18.040;2023-05-09T14:12:32;17.90;53.50
12130;DHT22;6128;59.340;18.040;2023-05-09T14:14:59;17.90;53.40
12130;DHT22;6128;59.340;18.040;2023-05-09T14:17:26;17.90;53.30
12130;DHT22;6128;59.340;18.040;2023-05-09T14:19:53;18.00;53.30
12130;DHT22;6128;59.340;18.040;2023-05-09T14:22:21;18.10;53.20
12130;DHT22;6128;59.340;18.040;2023-05-09T14:24:48;18.20;53.20
12130;DHT22;6128;59.340;18.040;2023-05-09T14:27:16;18.20;53.30
12130;DHT22;6128;59.340;18.040;2023-05-09T14:29:43;18.20;53.40
12130;DHT22;6128;59.340;18.040;2023-05-09T14:32:10;18.10;53.50
12130;DHT22;6128;59.340;18.040;2023-05-09T14:34:39;18.00;53.50
12130;DHT22;6128;59.340;18.040;2023-05-09T14:37:06;18.00;53.40
12130;DHT22;6128;59.340;18.040;2023-05-09T14:39:38;18.00;53.40
12130;DHT22;6128;59.340;18.040;2023-05-09T14:42:06;18.00;53.30
12130;DHT22;6128;59.340;18.040;2023-05-09T14:44:37;18.00;53.30
12130;DHT22;6128;59.340;18.040;2023-05-09T14:47:05;18.00;53.30
12130;DHT22;6128;59.340;18.040;2023-05-09T14:49:33;18.00;53.30
12130;DHT22;6128;59.340;18.040;2023-05-09T14:52:00;17.90;53.40
12130;DHT22;6128;59.340;18.040;2023-05-09T14:54:28;18.00;53.40
12130;DHT22;6128;59.340;18.040;2023-05-09T14:56:55;17.90;53.50
12130;DHT22;6128;59.340;18.040;2023-05-09T14:59:24;18.00;53.50
12130;DHT22;6128;59.340;18.040;2023-05-09T15:01:52;18.00;53.60
12130;DHT22;6128;59.340;18.040;2023-05-09T15:04:19;18.00;53.60
12130;DHT22;6128;59.340;18.040;2023-05-09T15:06:47;18.00;53.70
12130;DHT22;6128;59.340;18.040;2023-05-09T15:09:14;18.00;53.80
12130;DHT22;6128;59.340;18.040;2023-05-09T15:11:42;18.10;53.90
12130;DHT22;6128;59.340;18.040;2023-05-09T15:14:11;18.10;54.10
12130;DHT22;6128;59.340;18.040;2023-05-09T15:16:38;18.00;54.30
12130;DHT22;6128;59.340;18.040;2023-05-09T15:19:07;18.00;54.60
12130;DHT22;6128;59.340;18.040;2023-05-09T15:21:34;17.90;54.90
12130;DHT22;6128;59.340;18.040;2023-05-09T15:24:01;17.90;55.30
12130;DHT22;6128;59.340;18.040;2023-05-09T15:26:28;17.80;55.80
12130;DHT22;6128;59.340;18.040;2023-05-09T15:28:56;17.70;56.60
12130;DHT22;6128;59.340;18.040;2023-05-09T15:31:23;17.60;57.10
12130;DHT22;6128;59.340;18.040;2023-05-09T15:33:50;17.50;57.50
12130;DHT22;6128;59.340;18.040;2023-05-09T15:36:19;17.40;57.90
12130;DHT22;6128;59.340;18.040;2023-05-09T15:38:46;17.30;58.20
12130;DHT22;6128;59.340;18.040;2023-05-09T15:41:14;17.20;58.70
12130;DHT22;6128;59.340;18.040;2023-05-09T15:43:41;17.10;59.00
12130;DHT22;6128;59.340;18.040;2023-05-09T15:46:08;17.00;59.20